sensor_id;sensor_type;location;lat;lon;timestamp;pressure;altitude;pressure_sealevel;temperature;humidity
29733;BME280;16643;43.158;25.302;2022-12-18T00:01:40;98861.69;;;8.19;100.00
29733;BME280;16643;43.158;25.302;2022-12-18T00:04:06;98867.81;;;8.12;100.00
29733;BME280;16643;43.158;25.302;2022-12-18T00:06:33;98867.84;;;8.07;100.00
29733;BME280;16643;43.158;25.302;2022-12-18T00:08:59;98873.03;;;8.02;100.00
29733;BME280;16643;43.158;25.302;2022-12-18T00:11:27;98876.50;;;8.01;100.00
29733;BME280;16643;43.158;25.302;2022-12-18T00:13:53;98879.94;;;8.03;100.00
29733;BME280;16643;43.158;25.302;2022-12-18T00:16:20;98876.53;;;8.00;100.00
29733;BME280;16643;43.158;25.302;2022-12-18T00:18:46;98878.28;;;7.98;100.00
29733;BME280;16643;43.158;25.302;2022-12-18T00:21:12;98882.53;;;8.05;100.00
29733;BME280;16643;43.158;25.302;2022-12-18T00:23:37;98884.31;;;8.00;100.00
29733;BME280;16643;43.158;25.302;2022-12-18T00:26:04;98881.72;;;8.00;100.00
29733;BME280;16643;43.158;25.302;2022-12-18T00:28:30;98892.94;;;7.99;100.00
29733;BME280;16643;43.158;25.302;2022-12-18T00:31:05;98893.75;;;8.02;100.00
29733;BME280;16643;43.158;25.302;2022-12-18T00:33:31;98888.63;;;7.98;100.00
29733;BME280;16643;43.158;25.302;2022-12-18T00:36:03;98886.91;;;7.97;100.00
29733;BME280;16643;43.158;25.302;2022-12-18T00:38:29;98888.66;;;7.92;100.00
29733;BME280;16643;43.158;25.302;2022-12-18T00:40:55;98885.25;;;7.88;100.00
29733;BME280;16643;43.158;25.302;2022-12-18T00:43:20;98894.69;;;7.94;100.00
29733;BME280;16643;43.158;25.302;2022-12-18T00:45:46;98896.41;;;7.95;100.00
29733;BME280;16643;43.158;25.302;2022-12-18T00:48:11;98895.59;;;7.90;100.00
29733;BME280;16643;43.158;25.302;2022-12-18T00:50:36;98892.09;;;7.92;100.00
29733;BME280;16643;43.158;25.302;2022-12-18T00:53:02;98899.84;;;7.95;100.00
29733;BME280;16643;43.158;25.302;2022-12-18T00:55:27;98902.44;;;7.97;100.00
29733;BME280;16643;43.158;25.302;2022-12-18T00:57:53;98903.25;;;8.02;100.00
29733;BME280;16643;43.158;25.302;2022-12-18T01:00:18;98910.13;;;8.03;100.00
29733;BME280;16643;43.158;25.302;2022-12-18T01:02:44;98909.28;;;8.04;100.00
29733;BME280;16643;43.158;25.302;2022-12-18T01:05:10;98918.75;;;8.08;100.00
29733;BME280;16643;43.158;25.302;2022-12-18T01:07:36;98917.03;;;8.09;100.00
29733;BME280;16643;43.158;25.302;2022-12-18T01:10:02;98924.78;;;8.07;100.00
29733;BME280;16643;43.158;25.302;2022-12-18T01:12:27;98922.19;;;8.07;100.00
29733;BME280;16643;43.158;25.302;2022-12-18T01:14:53;98923.06;;;8.08;100.00
29733;BME280;16643;43.158;25.302;2022-12-18T01:17:18;98915.25;;;8.14;100.00
29733;BME280;16643;43.158;25.302;2022-12-18T01:19:44;98917.81;;;8.18;100.00
29733;BME280;16643;43.158;25.302;2022-12-18T01:22:09;98912.63;;;8.18;100.00
29733;BME280;16643;43.158;25.302;2022-12-18T01:24:34;98918.66;;;8.22;100.00
29733;BME280;16643;43.158;25.302;2022-12-18T01:27:00;98918.59;;;8.28;100.00
29733;BME280;16643;43.158;25.302;2022-12-18T01:29:25;98926.38;;;8.25;100.00
29733;BME280;16643;43.158;25.302;2022-12-18T01:31:54;98928.09;;;8.26;100.00
29733;BME280;16643;43.158;25.302;2022-12-18T01:34:19;98932.47;;;8.18;100.00
29733;BME280;16643;43.158;25.302;2022-12-18T01:36:45;98931.59;;;8.20;100.00
29733;BME280;16643;43.158;25.302;2022-12-18T01:39:12;98939.38;;;8.22;100.00
29733;BME280;16643;43.158;25.302;2022-12-18T01:41:38;98934.22;;;8.19;100.00
29733;BME280;16643;43.158;25.302;2022-12-18T01:47:06;98946.28;;;8.20;100.00
29733;BME280;16643;43.158;25.302;2022-12-18T01:49:31;98948.84;;;8.23;100.00
29733;BME280;16643;43.158;25.302;2022-12-18T01:51:57;98954.00;;;8.24;100.00
29733;BME280;16643;43.158;25.302;2022-12-18T01:54:22;98954.84;;;8.26;100.00
29733;BME280;16643;43.158;25.302;2022-12-18T01:56:48;98960.91;;;8.31;100.00
29733;BME280;16643;43.158;25.302;2022-12-18T01:59:13;98960.84;;;8.36;100.00
29733;BME280;16643;43.158;25.302;2022-12-18T02:01:39;98970.41;;;8.34;100.00
29733;BME280;16643;43.158;25.302;2022-12-18T02:04:21;98968.66;;;8.30;100.00
29733;BME280;16643;43.158;25.302;2022-12-18T02:06:47;98980.69;;;8.38;100.00
29733;BME280;16643;43.158;25.302;2022-12-18T02:09:16;98982.44;;;8.40;100.00
29733;BME280;16643;43.158;25.302;2022-12-18T02:11:56;98983.31;;;8.35;100.00
29733;BME280;16643;43.158;25.302;2022-12-18T02:14:29;98988.50;;;8.29;100.00
29733;BME280;16643;43.158;25.302;2022-12-18T02:17:06;98991.13;;;8.34;100.00
29733;BME280;16643;43.158;25.302;2022-12-18T02:19:54;98997.22;;;8.15;100.00
29733;BME280;16643;43.158;25.302;2022-12-18T02:27:44;99002.38;;;8.24;100.00
29733;BME280;16643;43.158;25.302;2022-12-18T02:30:11;99003.31;;;8.06;100.00
29733;BME280;16643;43.158;25.302;2022-12-18T02:32:38;99012.81;;;8.06;100.00
29733;BME280;16643;43.158;25.302;2022-12-18T02:35:05;99002.53;;;7.92;100.00
29733;BME280;16643;43.158;25.302;2022-12-18T02:37:31;99012.13;;;7.78;100.00
29733;BME280;16643;43.158;25.302;2022-12-18T02:39:58;99014.72;;;7.72;100.00
29733;BME280;16643;43.158;25.302;2022-12-18T02:42:25;99014.72;;;7.73;100.00
29733;BME280;16643;43.158;25.302;2022-12-18T02:44:51;99015.56;;;7.78;100.00
29733;BME280;16643;43.158;25.302;2022-12-18T02:47:17;99012.06;;;7.84;100.00
29733;BME280;16643;43.158;25.302;2022-12-18T02:57:42;99021.59;;;7.77;100.00
29733;BME280;16643;43.158;25.302;2022-12-18T03:00:13;99028.50;;;7.74;100.00
29733;BME280;16643;43.158;25.302;2022-12-18T03:02:42;99025.00;;;7.79;100.00
29733;BME280;16643;43.158;25.302;2022-12-18T03:05:13;99036.25;;;7.78;100.00
29733;BME280;16643;43.158;25.302;2022-12-18T03:07:42;99036.28;;;7.69;100.00
29733;BME280;16643;43.158;25.302;2022-12-18T03:10:09;99043.22;;;7.56;100.00
29733;BME280;16643;43.158;25.302;2022-12-18T03:12:38;99036.34;;;7.51;100.00
29733;BME280;16643;43.158;25.302;2022-12-18T03:15:16;99040.66;;;7.47;100.00
29733;BME280;16643;43.158;25.302;2022-12-18T03:17:49;99043.28;;;7.38;100.00
29733;BME280;16643;43.158;25.302;2022-12-18T03:20:17;99048.44;;;7.37;100.00
29733;BME280;16643;43.158;25.302;2022-12-18T03:22:44;99054.47;;;7.45;100.00
29733;BME280;16643;43.158;25.302;2022-12-18T03:25:13;99056.19;;;7.41;100.00
29733;BME280;16643;43.158;25.302;2022-12-18T03:27:40;99063.06;;;7.50;100.00
29733;BME280;16643;43.158;25.302;2022-12-18T03:30:08;99065.69;;;7.41;100.00
29733;BME280;16643;43.158;25.302;2022-12-18T03:32:53;99072.59;;;7.29;100.00
29733;BME280;16643;43.158;25.302;2022-12-18T03:35:25;99080.34;;;7.36;100.00
29733;BME280;16643;43.158;25.302;2022-12-18T03:37:51;99083.78;;;7.36;100.00
29733;BME280;16643;43.158;25.302;2022-12-18T03:40:17;99100.16;;;7.35;100.00
29733;BME280;16643;43.158;25.302;2022-12-18T03:42:48;99097.59;;;7.23;100.00
29733;BME280;16643;43.158;25.302;2022-12-18T03:45:27;99107.06;;;7.25;100.00
29733;BME280;16643;43.158;25.302;2022-12-18T03:47:58;99108.78;;;7.25;100.00
29733;BME280;16643;43.158;25.302;2022-12-18T03:52:54;99113.09;;;7.26;100.00
29733;BME280;16643;43.158;25.302;2022-12-18T03:55:23;99113.13;;;7.32;100.00
29733;BME280;16643;43.158;25.302;2022-12-18T03:57:50;99113.09;;;7.27;100.00
29733;BME280;16643;43.158;25.302;2022-12-18T04:00:17;99119.13;;;7.25;100.00
29733;BME280;16643;43.158;25.302;2022-12-18T04:02:44;99112.25;;;7.25;100.00
29733;BME280;16643;43.158;25.302;2022-12-18T04:05:11;99127.75;;;7.24;100.00
29733;BME280;16643;43.158;25.302;2022-12-18T04:07:38;99126.91;;;7.31;100.00
29733;BME280;16643;43.158;25.302;2022-12-18T04:10:05;99132.94;;;7.30;100.00
29733;BME280;16643;43.158;25.302;2022-12-18T04:12:31;99136.34;;;7.34;100.00
29733;BME280;16643;43.158;25.302;2022-12-18T04:14:57;99138.94;;;7.34;100.00
29733;BME280;16643;43.158;25.302;2022-12-18T04:17:22;99136.34;;;7.35;100.00
29733;BME280;16643;43.158;25.302;2022-12-18T04:19:49;99139.81;;;7.29;100.00
29733;BME280;16643;43.158;25.302;2022-12-18T04:22:14;99152.75;;;7.29;100.00
29733;BME280;16643;43.158;25.302;2022-12-18T04:24:41;99154.47;;;7.23;100.00
29733;BME280;16643;43.158;25.302;2022-12-18T04:27:06;99164.81;;;7.23;100.00
29733;BME280;16643;43.158;25.302;2022-12-18T04:29:32;99166.53;;;7.15;100.00
29733;BME280;16643;43.158;25.302;2022-12-18T04:31:57;99163.94;;;7.12;100.00
29733;BME280;16643;43.158;25.302;2022-12-18T04:34:23;99166.53;;;7.12;100.00
29733;BME280;16643;43.158;25.302;2022-12-18T04:36:48;99173.41;;;7.13;100.00
29733;BME280;16643;43.158;25.302;2022-12-18T04:39:14;99179.44;;;7.03;100.00
29733;BME280;16643;43.158;25.302;2022-12-18T04:41:44;99170.00;;;7.09;100.00
29733;BME280;16643;43.158;25.302;2022-12-18T04:44:09;99187.22;;;7.10;100.00
29733;BME280;16643;43.158;25.302;2022-12-18T04:46:35;99191.53;;;7.16;100.00
29733;BME280;16643;43.158;25.302;2022-12-18T04:49:00;99188.06;;;7.14;100.00
29733;BME280;16643;43.158;25.302;2022-12-18T04:51:26;99188.91;;;7.04;99.89
29733;BME280;16643;43.158;25.302;2022-12-18T04:53:51;99204.44;;;7.08;99.29
29733;BME280;16643;43.158;25.302;2022-12-18T04:56:17;99200.13;;;7.07;100.00
29733;BME280;16643;43.158;25.302;2022-12-18T04:58:43;99195.81;;;7.00;100.00
29733;BME280;16643;43.158;25.302;2022-12-18T05:01:13;99207.00;;;7.04;98.51
29733;BME280;16643;43.158;25.302;2022-12-18T05:03:39;99206.16;;;7.03;98.00
29733;BME280;16643;43.158;25.302;2022-12-18T05:06:04;99225.94;;;6.89;96.72
29733;BME280;16643;43.158;25.302;2022-12-18T05:08:30;99223.34;;;6.89;96.84
29733;BME280;16643;43.158;25.302;2022-12-18T05:10:59;99228.50;;;6.90;97.55
29733;BME280;16643;43.158;25.302;2022-12-18T05:13:25;99232.84;;;6.87;99.46
29733;BME280;16643;43.158;25.302;2022-12-18T05:15:51;99238.00;;;6.95;98.71
29733;BME280;16643;43.158;25.302;2022-12-18T05:18:17;99238.00;;;6.95;98.56
29733;BME280;16643;43.158;25.302;2022-12-18T05:20:42;99236.31;;;6.98;99.55
29733;BME280;16643;43.158;25.302;2022-12-18T05:23:08;99246.63;;;6.95;98.88
29733;BME280;16643;43.158;25.302;2022-12-18T05:25:33;99255.25;;;6.94;98.47
29733;BME280;16643;43.158;25.302;2022-12-18T05:27:59;99257.81;;;6.88;99.41
29733;BME280;16643;43.158;25.302;2022-12-18T05:30:24;99259.47;;;6.78;97.88
29733;BME280;16643;43.158;25.302;2022-12-18T05:32:50;99264.69;;;6.83;97.48
29733;BME280;16643;43.158;25.302;2022-12-18T05:35:15;99268.13;;;6.82;96.43
29733;BME280;16643;43.158;25.302;2022-12-18T05:37:41;99269.88;;;6.87;97.05
29733;BME280;16643;43.158;25.302;2022-12-18T05:40:06;99268.94;;;6.72;93.92
29733;BME280;16643;43.158;25.302;2022-12-18T05:42:32;99274.06;;;6.61;93.69
29733;BME280;16643;43.158;25.302;2022-12-18T05:44:57;99279.22;;;6.60;95.04
29733;BME280;16643;43.158;25.302;2022-12-18T05:47:23;99274.94;;;6.63;94.48
29733;BME280;16643;43.158;25.302;2022-12-18T05:49:48;99277.50;;;6.62;94.25
29733;BME280;16643;43.158;25.302;2022-12-18T05:52:14;99268.84;;;6.55;92.13
29733;BME280;16643;43.158;25.302;2022-12-18T05:54:39;99276.63;;;6.52;92.99
29733;BME280;16643;43.158;25.302;2022-12-18T05:57:05;99286.09;;;6.54;93.90
29733;BME280;16643;43.158;25.302;2022-12-18T05:59:30;99285.22;;;6.52;93.34
29733;BME280;16643;43.158;25.302;2022-12-18T06:01:56;99291.25;;;6.56;94.27
29733;BME280;16643;43.158;25.302;2022-12-18T06:04:21;99297.31;;;6.61;94.93
29733;BME280;16643;43.158;25.302;2022-12-18T06:06:47;99297.25;;;6.55;91.70
29733;BME280;16643;43.158;25.302;2022-12-18T06:09:12;99299.78;;;6.44;90.85
29733;BME280;16643;43.158;25.302;2022-12-18T06:11:38;99301.50;;;6.44;93.33
29733;BME280;16643;43.158;25.302;2022-12-18T06:14:04;99298.06;;;6.43;91.41
29733;BME280;16643;43.158;25.302;2022-12-18T06:16:30;99300.66;;;6.45;91.60
29733;BME280;16643;43.158;25.302;2022-12-18T06:18:59;99306.69;;;6.45;93.28
29733;BME280;16643;43.158;25.302;2022-12-18T06:21:25;99313.56;;;6.45;91.28
29733;BME280;16643;43.158;25.302;2022-12-18T06:23:51;99321.31;;;6.45;90.56
29733;BME280;16643;43.158;25.302;2022-12-18T06:26:16;99325.63;;;6.47;90.58
29733;BME280;16643;43.158;25.302;2022-12-18T06:28:42;99335.94;;;6.46;91.22
29733;BME280;16643;43.158;25.302;2022-12-18T06:31:08;99338.59;;;6.55;92.04
29733;BME280;16643;43.158;25.302;2022-12-18T06:33:33;99338.63;;;6.61;90.40
29733;BME280;16643;43.158;25.302;2022-12-18T06:36:06;99340.38;;;6.67;91.48
29733;BME280;16643;43.158;25.302;2022-12-18T06:38:33;99346.41;;;6.64;89.80
29733;BME280;16643;43.158;25.302;2022-12-18T06:40:58;99343.75;;;6.55;87.52
29733;BME280;16643;43.158;25.302;2022-12-18T06:43:24;99359.22;;;6.49;88.71
29733;BME280;16643;43.158;25.302;2022-12-18T06:45:49;99359.25;;;6.55;89.72
29733;BME280;16643;43.158;25.302;2022-12-18T06:48:20;99357.56;;;6.59;90.19
29733;BME280;16643;43.158;25.302;2022-12-18T06:50:46;99361.00;;;6.59;90.74
29733;BME280;16643;43.158;25.302;2022-12-18T06:53:11;99365.28;;;6.57;89.56
29733;BME280;16643;43.158;25.302;2022-12-18T06:55:37;99380.75;;;6.49;88.14
29733;BME280;16643;43.158;25.302;2022-12-18T06:58:02;99383.31;;;6.48;87.95
29733;BME280;16643;43.158;25.302;2022-12-18T07:00:27;99382.47;;;6.50;90.08
29733;BME280;16643;43.158;25.302;2022-12-18T07:02:53;99391.09;;;6.52;89.76
29733;BME280;16643;43.158;25.302;2022-12-18T07:05:18;99390.25;;;6.53;88.22
29733;BME280;16643;43.158;25.302;2022-12-18T07:07:44;99395.44;;;6.60;89.99
29733;BME280;16643;43.158;25.302;2022-12-18T07:10:09;99396.28;;;6.57;88.08
29733;BME280;16643;43.158;25.302;2022-12-18T07:12:35;99402.34;;;6.61;88.45
29733;BME280;16643;43.158;25.302;2022-12-18T07:15:00;99402.44;;;6.73;89.78
29733;BME280;16643;43.158;25.302;2022-12-18T07:17:26;99407.59;;;6.73;90.09
29733;BME280;16643;43.158;25.302;2022-12-18T07:19:51;99409.28;;;6.68;88.75
29733;BME280;16643;43.158;25.302;2022-12-18T07:22:17;99406.69;;;6.69;89.51
29733;BME280;16643;43.158;25.302;2022-12-18T07:24:42;99418.78;;;6.70;86.25
29733;BME280;16643;43.158;25.302;2022-12-18T07:27:08;99420.44;;;6.62;83.62
29733;BME280;16643;43.158;25.302;2022-12-18T07:29:37;99424.72;;;6.60;84.48
29733;BME280;16643;43.158;25.302;2022-12-18T07:32:02;99423.00;;;6.59;85.71
29733;BME280;16643;43.158;25.302;2022-12-18T07:34:27;99428.19;;;6.62;86.95
29733;BME280;16643;43.158;25.302;2022-12-18T07:36:53;99418.75;;;6.69;86.35
29733;BME280;16643;43.158;25.302;2022-12-18T07:39:18;99421.34;;;6.66;85.89
29733;BME280;16643;43.158;25.302;2022-12-18T07:41:44;99428.22;;;6.65;84.25
29733;BME280;16643;43.158;25.302;2022-12-18T07:44:29;99429.03;;;6.60;84.68
29733;BME280;16643;43.158;25.302;2022-12-18T07:46:54;99430.72;;;6.56;85.00
29733;BME280;16643;43.158;25.302;2022-12-18T07:49:20;99436.72;;;6.55;85.33
29733;BME280;16643;43.158;25.302;2022-12-18T07:51:48;99438.50;;;6.61;86.05
29733;BME280;16643;43.158;25.302;2022-12-18T07:54:14;99438.53;;;6.62;86.62
29733;BME280;16643;43.158;25.302;2022-12-18T07:56:40;99439.47;;;6.73;87.18
29733;BME280;16643;43.158;25.302;2022-12-18T07:59:05;99449.75;;;6.66;88.08
29733;BME280;16643;43.158;25.302;2022-12-18T08:01:30;99458.41;;;6.72;87.44
29733;BME280;16643;43.158;25.302;2022-12-18T08:03:56;99455.84;;;6.74;86.98
29733;BME280;16643;43.158;25.302;2022-12-18T08:06:22;99463.53;;;6.68;86.19
29733;BME280;16643;43.158;25.302;2022-12-18T08:08:48;99461.81;;;6.68;85.13
29733;BME280;16643;43.158;25.302;2022-12-18T08:11:13;99468.72;;;6.71;85.76
29733;BME280;16643;43.158;25.302;2022-12-18T08:13:39;99470.47;;;6.78;85.43
29733;BME280;16643;43.158;25.302;2022-12-18T08:16:05;99467.06;;;6.82;84.15
29733;BME280;16643;43.158;25.302;2022-12-18T08:18:32;99469.66;;;6.82;82.88
29733;BME280;16643;43.158;25.302;2022-12-18T08:20:57;99453.34;;;6.87;83.09
29733;BME280;16643;43.158;25.302;2022-12-18T08:23:23;99460.25;;;6.87;80.56
29733;BME280;16643;43.158;25.302;2022-12-18T08:25:48;99475.72;;;6.85;78.78
29733;BME280;16643;43.158;25.302;2022-12-18T08:28:18;99458.47;;;6.81;78.82
29733;BME280;16643;43.158;25.302;2022-12-18T08:30:43;99466.25;;;6.86;80.56
29733;BME280;16643;43.158;25.302;2022-12-18T08:33:08;99468.81;;;6.84;79.99
29733;BME280;16643;43.158;25.302;2022-12-18T08:35:35;99468.84;;;6.86;78.17
29733;BME280;16643;43.158;25.302;2022-12-18T08:38:01;99469.72;;;6.86;77.57
29733;BME280;16643;43.158;25.302;2022-12-18T08:40:27;99474.84;;;6.83;76.82
29733;BME280;16643;43.158;25.302;2022-12-18T08:42:52;99473.94;;;6.80;78.69
29733;BME280;16643;43.158;25.302;2022-12-18T08:45:36;99475.66;;;6.78;76.08
29733;BME280;16643;43.158;25.302;2022-12-18T08:48:02;99477.41;;;6.80;75.92
29733;BME280;16643;43.158;25.302;2022-12-18T08:50:27;99480.84;;;6.81;76.96
29733;BME280;16643;43.158;25.302;2022-12-18T08:52:52;99481.69;;;6.78;76.86
29733;BME280;16643;43.158;25.302;2022-12-18T08:55:18;99481.75;;;6.86;79.17
29733;BME280;16643;43.158;25.302;2022-12-18T08:57:47;99480.91;;;6.85;78.91
29733;BME280;16643;43.158;25.302;2022-12-18T09:00:15;99479.16;;;6.89;78.14
29733;BME280;16643;43.158;25.302;2022-12-18T09:02:40;99473.25;;;6.99;78.01
29733;BME280;16643;43.158;25.302;2022-12-18T09:05:06;99473.25;;;7.05;77.68
29733;BME280;16643;43.158;25.302;2022-12-18T09:07:31;99466.38;;;7.06;78.42
29733;BME280;16643;43.158;25.302;2022-12-18T09:09:57;99470.72;;;7.13;77.93
29733;BME280;16643;43.158;25.302;2022-12-18T09:12:22;99467.28;;;7.11;76.84
29733;BME280;16643;43.158;25.302;2022-12-18T09:14:47;99462.97;;;7.10;77.60
29733;BME280;16643;43.158;25.302;2022-12-18T09:17:13;99456.91;;;7.06;78.73
29733;BME280;16643;43.158;25.302;2022-12-18T09:19:38;99456.06;;;7.09;79.13
29733;BME280;16643;43.158;25.302;2022-12-18T09:22:04;99453.50;;;7.10;75.54
29733;BME280;16643;43.158;25.302;2022-12-18T09:24:29;99451.75;;;7.12;73.59
29733;BME280;16643;43.158;25.302;2022-12-18T09:26:55;99459.50;;;7.06;73.87
29733;BME280;16643;43.158;25.302;2022-12-18T09:29:20;99462.09;;;7.09;75.32
29733;BME280;16643;43.158;25.302;2022-12-18T09:31:46;99462.13;;;7.11;75.68
29733;BME280;16643;43.158;25.302;2022-12-18T09:34:12;99451.75;;;7.09;77.16
29733;BME280;16643;43.158;25.302;2022-12-18T09:36:37;99462.97;;;7.10;77.36
29733;BME280;16643;43.158;25.302;2022-12-18T09:39:03;99448.31;;;7.12;77.93
29733;BME280;16643;43.158;25.302;2022-12-18T09:44:43;99450.09;;;7.22;78.04
29733;BME280;16643;43.158;25.302;2022-12-18T09:47:03;99449.22;;;7.24;77.19
29733;BME280;16643;43.158;25.302;2022-12-18T09:49:30;99443.25;;;7.30;74.79
29733;BME280;16643;43.158;25.302;2022-12-18T09:51:59;99443.19;;;7.25;74.68
29733;BME280;16643;43.158;25.302;2022-12-18T09:54:32;99457.00;;;7.24;75.22
29733;BME280;16643;43.158;25.302;2022-12-18T09:56:58;99450.09;;;7.26;76.70
29733;BME280;16643;43.158;25.302;2022-12-18T09:59:25;99457.03;;;7.32;76.51
29733;BME280;16643;43.158;25.302;2022-12-18T10:01:52;99445.84;;;7.38;78.39
29733;BME280;16643;43.158;25.302;2022-12-18T10:04:18;99454.53;;;7.44;77.22
29733;BME280;16643;43.158;25.302;2022-12-18T10:11:43;99461.41;;;7.44;77.51
29733;BME280;16643;43.158;25.302;2022-12-18T10:14:20;99458.00;;;7.52;77.90
29733;BME280;16643;43.158;25.302;2022-12-18T10:19:40;99455.38;;;7.45;77.43
29733;BME280;16643;43.158;25.302;2022-12-18T10:27:14;99462.38;;;7.67;76.14
29733;BME280;16643;43.158;25.302;2022-12-18T10:29:41;99466.66;;;7.68;75.48
29733;BME280;16643;43.158;25.302;2022-12-18T10:32:07;99463.22;;;7.71;74.62
29733;BME280;16643;43.158;25.302;2022-12-18T10:34:33;99470.16;;;7.76;76.80
29733;BME280;16643;43.158;25.302;2022-12-18T10:37:00;99468.44;;;7.75;74.53
29733;BME280;16643;43.158;25.302;2022-12-18T10:39:25;99464.09;;;7.80;75.04
29733;BME280;16643;43.158;25.302;2022-12-18T10:41:51;99458.94;;;7.80;75.13
29733;BME280;16643;43.158;25.302;2022-12-18T10:44:23;99455.53;;;7.89;75.76
29733;BME280;16643;43.158;25.302;2022-12-18T10:46:53;99461.59;;;7.98;73.98
29733;BME280;16643;43.158;25.302;2022-12-18T10:49:22;99475.38;;;8.03;75.82
29733;BME280;16643;43.158;25.302;2022-12-18T10:51:48;99470.22;;;8.05;73.97
29733;BME280;16643;43.158;25.302;2022-12-18T10:54:15;99465.94;;;8.10;74.19
29733;BME280;16643;43.158;25.302;2022-12-18T10:56:42;99465.94;;;8.18;73.16
29733;BME280;16643;43.158;25.302;2022-12-18T10:59:09;99475.41;;;8.17;71.52
29733;BME280;16643;43.158;25.302;2022-12-18T11:04:15;99470.25;;;8.22;70.97
29733;BME280;16643;43.158;25.302;2022-12-18T11:06:52;99469.41;;;8.20;69.40
29733;BME280;16643;43.158;25.302;2022-12-18T11:09:21;99479.72;;;8.06;67.61
29733;BME280;16643;43.158;25.302;2022-12-18T11:12:29;99481.44;;;8.06;69.03
29733;BME280;16643;43.158;25.302;2022-12-18T11:14:56;99489.19;;;7.98;70.51
29733;BME280;16643;43.158;25.302;2022-12-18T11:17:25;99482.28;;;7.94;71.25
29733;BME280;16643;43.158;25.302;2022-12-18T11:19:56;99489.19;;;7.96;69.43
29733;BME280;16643;43.158;25.302;2022-12-18T11:22:27;99485.69;;;7.82;68.81
29733;BME280;16643;43.158;25.302;2022-12-18T11:27:28;99484.84;;;7.83;70.83
29733;BME280;16643;43.158;25.302;2022-12-18T11:30:06;99492.56;;;7.71;69.21
29733;BME280;16643;43.158;25.302;2022-12-18T11:32:36;99494.22;;;7.57;71.44
29733;BME280;16643;43.158;25.302;2022-12-18T11:35:17;99496.88;;;7.66;73.59
29733;BME280;16643;43.158;25.302;2022-12-18T11:37:47;99497.72;;;7.71;74.02
29733;BME280;16643;43.158;25.302;2022-12-18T11:40:18;99500.34;;;7.74;73.02
29733;BME280;16643;43.158;25.302;2022-12-18T11:42:53;99502.78;;;7.42;73.61
29733;BME280;16643;43.158;25.302;2022-12-18T11:45:30;99501.00;;;7.37;73.70
29733;BME280;16643;43.158;25.302;2022-12-18T11:50:28;99503.53;;;7.26;76.41
29733;BME280;16643;43.158;25.302;2022-12-18T11:52:54;99501.66;;;7.02;76.07
29733;BME280;16643;43.158;25.302;2022-12-18T11:57:57;99493.78;;;6.82;77.03
29733;BME280;16643;43.158;25.302;2022-12-18T12:00:26;99496.34;;;6.79;78.29
29733;BME280;16643;43.158;25.302;2022-12-18T12:08:14;99502.34;;;6.74;80.63
29733;BME280;16643;43.158;25.302;2022-12-18T12:10:46;99505.72;;;6.68;78.78
29733;BME280;16643;43.158;25.302;2022-12-18T12:23:55;99497.84;;;6.51;81.38
29733;BME280;16643;43.158;25.302;2022-12-18T12:26:31;99492.69;;;6.56;82.05
29733;BME280;16643;43.158;25.302;2022-12-18T12:38:57;99499.66;;;6.63;82.06
29733;BME280;16643;43.158;25.302;2022-12-18T12:41:26;99498.78;;;6.61;82.64
29733;BME280;16643;43.158;25.302;2022-12-18T12:44:22;99494.53;;;6.69;82.86
29733;BME280;16643;43.158;25.302;2022-12-18T12:46:49;99497.13;;;6.69;82.56
29733;BME280;16643;43.158;25.302;2022-12-18T12:49:18;99497.88;;;6.56;83.13
29733;BME280;16643;43.158;25.302;2022-12-18T12:51:45;99499.63;;;6.59;84.00
29733;BME280;16643;43.158;25.302;2022-12-18T12:54:17;99505.72;;;6.67;83.78
29733;BME280;16643;43.158;25.302;2022-12-18T12:56:47;99509.13;;;6.61;81.67
29733;BME280;16643;43.158;25.302;2022-12-18T12:59:23;99509.97;;;6.60;82.90
29733;BME280;16643;43.158;25.302;2022-12-18T13:01:55;99521.22;;;6.67;83.40
29733;BME280;16643;43.158;25.302;2022-12-18T13:12:24;99541.88;;;6.67;83.88
29733;BME280;16643;43.158;25.302;2022-12-18T13:15:11;99545.34;;;6.69;85.25
29733;BME280;16643;43.158;25.302;2022-12-18T13:17:38;99544.56;;;6.76;84.68
29733;BME280;16643;43.158;25.302;2022-12-18T13:20:07;99544.53;;;6.74;80.24
29733;BME280;16643;43.158;25.302;2022-12-18T13:22:38;99555.78;;;6.81;81.84
29733;BME280;16643;43.158;25.302;2022-12-18T13:25:26;99561.84;;;6.83;79.71
29733;BME280;16643;43.158;25.302;2022-12-18T13:31:06;99569.63;;;6.87;75.12
29733;BME280;16643;43.158;25.302;2022-12-18T13:35:38;99573.94;;;6.88;75.99
29733;BME280;16643;43.158;25.302;2022-12-18T13:38:20;99573.06;;;6.85;73.39
29733;BME280;16643;43.158;25.302;2022-12-18T13:45:45;99582.56;;;6.87;73.27
29733;BME280;16643;43.158;25.302;2022-12-18T13:48:31;99584.28;;;6.87;72.43
29733;BME280;16643;43.158;25.302;2022-12-18T13:51:01;99589.41;;;6.82;71.72
29733;BME280;16643;43.158;25.302;2022-12-18T13:53:50;99590.25;;;6.81;72.69
29733;BME280;16643;43.158;25.302;2022-12-18T13:59:13;99598.09;;;6.93;74.05
29733;BME280;16643;43.158;25.302;2022-12-18T14:01:47;99600.66;;;6.90;73.10
29733;BME280;16643;43.158;25.302;2022-12-18T14:04:19;99593.81;;;6.96;73.17
29733;BME280;16643;43.158;25.302;2022-12-18T14:06:45;99598.84;;;6.80;74.56
29733;BME280;16643;43.158;25.302;2022-12-18T14:09:13;99596.34;;;6.89;72.75
29733;BME280;16643;43.158;25.302;2022-12-18T14:11:39;99593.78;;;6.91;73.90
29733;BME280;16643;43.158;25.302;2022-12-18T14:14:04;99595.47;;;6.89;72.49
29733;BME280;16643;43.158;25.302;2022-12-18T14:16:32;99595.28;;;6.68;72.63
29733;BME280;16643;43.158;25.302;2022-12-18T14:18:59;99599.66;;;6.75;73.31
29733;BME280;16643;43.158;25.302;2022-12-18T14:21:25;99595.38;;;6.77;74.59
29733;BME280;16643;43.158;25.302;2022-12-18T14:24:05;99604.81;;;6.73;75.75
29733;BME280;16643;43.158;25.302;2022-12-18T14:26:31;99614.03;;;6.48;75.87
29733;BME280;16643;43.158;25.302;2022-12-18T14:28:59;99624.22;;;6.36;76.86
29733;BME280;16643;43.158;25.302;2022-12-18T14:31:29;99624.91;;;6.22;79.42
29733;BME280;16643;43.158;25.302;2022-12-18T14:33:55;99621.63;;;6.32;79.07